Varamo — C4SQ2 — position and weather

sailwx.info

Track history (hours):
 
Tides and Currents Weather Stations Pressure Air Temp Water Temp Dewpoint Dewpoint Depression Visibility Wind Speed Wind Dir Waves Ship Positions

Varamo

Last reported at 2017-Dec-01 22:19 UTC. Time now 2017-Dec-11 20:51 UTC.
Position N 17°46' W 063°07'.
Warning: this ship's position is 9 days out of date.

Length 167 m; draft 8.7 m.

Type: Ship (hazmat cat A). MMSI: 210910000.

Date/timePositionNaut miles runAvg speedWind from/ knotsBaromVisibWave heightAir tempDewpointWater temp
2017-Dec-01 22:19N 17°46' W 063°07'718.3
2017-Dec-01 21:57N 17°52' W 063°06'817.3
2017-Dec-01 21:30N 18°00' W 063°05'2 0.1
2017-Dec-01 10:48N 18°00' W 063°03'2 5.1
2017-Dec-01 10:30N 18°00' W 063°05'2 3.1
2017-Dec-01 09:57N 17°58' W 063°05'511.4
2017-Dec-01 09:30N 17°54' W 063°02'713.7
2017-Dec-01 08:58N 17°48' W 062°57'713.9
2017-Dec-01 08:29N 17°43' W 062°53'714.6
2017-Dec-01 08:00N 17°37' W 062°48'915.8
2017-Dec-01 07:27N 17°30' W 062°43'716.1
2017-Dec-01 07:00N 17°25' W 062°38'815.8
2017-Dec-01 06:30N 17°19' W 062°33'815.6
2017-Dec-01 06:01N 17°13' W 062°28'1215.6
2017-Dec-01 05:14N 17°00' W 062°26'416.1
2017-Dec-01 05:00N 16°57' W 062°26'815.6
2017-Dec-01 04:30N 16°49' W 062°25'815.6
2017-Dec-01 04:00N 16°41' W 062°23'815.3
2017-Dec-01 03:30N 16°35' W 062°20'815.5
2017-Dec-01 03:00N 16°28' W 062°16'815.8
2017-Dec-01 02:30N 16°21' W 062°12'815.8
2017-Dec-01 02:00N 16°14' W 062°08'815.8
2017-Dec-01 01:30N 16°07' W 062°04'1015.7
2017-Dec-01 00:53N 15°58' W 061°60'715.9
2017-Dec-01 00:28N 15°52' W 061°57'1916.0
2017-Nov-30 23:19N 15°36' W 061°47'615.9
2017-Nov-30 22:57N 15°31' W 061°44'715.8
2017-Nov-30 22:30N 15°25' W 061°41'815.8
2017-Nov-30 21:59N 15°18' W 061°37'816.4
2017-Nov-30 21:29N 15°10' W 061°33'2516.5
2017-Nov-30 19:59N 14°48' W 061°21'916.2
2017-Nov-30 19:27N 14°41' W 061°17'715.9
2017-Nov-30 19:00N 14°37' W 061°11'713.9
2017-Nov-30 18:31N 14°35' W 061°04'1 0.9
2017-Nov-30 17:38N 14°35' W 061°03'0 0.0
2017-Nov-30 17:29N 14°35' W 061°03'0 0.0
2017-Nov-30 16:59N 14°35' W 061°03'0 0.0
2017-Nov-30 16:29N 14°35' W 061°03'0 0.0
2017-Nov-30 15:56N 14°35' W 061°03'0 0.0
2017-Nov-30 15:26N 14°35' W 061°03'0 0.0
2017-Nov-30 14:41N 14°35' W 061°03'0 0.0
2017-Nov-30 14:29N 14°35' W 061°03'0 0.0
2017-Nov-30 13:59N 14°35' W 061°03'0 0.0
2017-Nov-30 13:26N 14°35' W 061°03'0 0.0
2017-Nov-30 12:59N 14°35' W 061°03'0 0.0
2017-Nov-30 12:20N 14°35' W 061°03'0 0.0
2017-Nov-30 11:47N 14°35' W 061°03'0 0.0
2017-Nov-30 11:23N 14°35' W 061°03'0 0.0
2017-Nov-30 10:59N 14°35' W 061°03'0 0.0
2017-Nov-30 10:23N 14°35' W 061°03'1 1.7
2017-Nov-30 10:00N 14°35' W 061°04'3 5.5
2017-Nov-30 09:31N 14°36' W 061°06'611.8
2017-Nov-30 09:00N 14°37' W 061°12'815.8
2017-Nov-30 08:30N 14°40' W 061°20'913.4
2017-Nov-30 07:49N 14°42' W 061°29'1 0.3
2017-Nov-30 03:25N 14°43' W 061°28'0 0.3
2017-Nov-30 02:06N 14°43' W 061°28'0 0.2
2017-Nov-30 01:38N 14°43' W 061°27'0 0.5
2017-Nov-30 01:21N 14°43' W 061°28'3 7.4
2017-Nov-30 00:59N 14°46' W 061°28'3713.4
2017-Nov-29 22:14N 15°22' W 061°34'313.0
2017-Nov-29 21:59N 15°25' W 061°34'712.8
2017-Nov-29 21:26N 15°32' W 061°34'613.2
2017-Nov-29 21:01N 15°38' W 061°34'1613.3
2017-Nov-29 19:48N 15°53' W 061°29'412.9
2017-Nov-29 19:28N 15°57' W 061°29'613.4
2017-Nov-29 19:00N 16°03' W 061°29'611.9
2017-Nov-29 18:30N 16°09' W 061°31'5 9.2
2017-Nov-29 18:00N 16°14' W 061°32'1 0.2
2017-Nov-29 15:33N 16°14' W 061°33'0 0.0
2017-Nov-29 13:12N 16°14' W 061°33'0 0.0
2017-Nov-29 13:00N 16°14' W 061°33'0 0.0
2017-Nov-29 12:27N 16°14' W 061°33'0 0.0
2017-Nov-29 12:00N 16°14' W 061°33'0 0.0
2017-Nov-29 11:27N 16°14' W 061°33'0 0.0
2017-Nov-29 10:00N 16°14' W 061°33'2 3.2
2017-Nov-29 09:30N 16°12' W 061°32'4 8.1
2017-Nov-29 09:00N 16°09' W 061°30'611.9
2017-Nov-29 08:30N 16°07' W 061°24'916.2
2017-Nov-29 07:57N 16°06' W 061°15'716.2
2017-Nov-29 07:29N 16°07' W 061°07'  
2017-Nov-24 07:25N 39°35' W 031°49'718.1
2017-Nov-24 07:00N 39°40' W 031°42'918.2
2017-Nov-24 06:30N 39°46' W 031°33'1417.9
2017-Nov-24 05:42N 39°55' W 031°18'317.9
2017-Nov-24 05:30N 39°56' W 031°14'917.9
2017-Nov-24 05:00N 40°01' W 031°04'1018.1
2017-Nov-24 04:28N 40°05' W 030°53'  
Track history (hours):
 
Tides and Currents Weather Stations Pressure Air Temp Water Temp Dewpoint Dewpoint Depression Visibility Wind Speed Wind Dir Waves Ship Positions

Varamo

Last reported at 2017-Dec-01 22:19 UTC. Time now 2017-Dec-11 20:51 UTC.
Position N 17°46' W 063°07'.
Warning: this ship's position is 9 days out of date.

Length 167 m; draft 8.7 m.

Type: Ship (hazmat cat A). MMSI: 210910000.

Date/timePositionNaut miles runAvg speedWind from/ knotsBaromVisibWave heightAir tempDewpointWater temp
2017-Dec-01 22:19N 17°46' W 063°07'718.3
2017-Dec-01 21:57N 17°52' W 063°06'817.3
2017-Dec-01 21:30N 18°00' W 063°05'2 0.1
2017-Dec-01 10:48N 18°00' W 063°03'2 5.1
2017-Dec-01 10:30N 18°00' W 063°05'2 3.1
2017-Dec-01 09:57N 17°58' W 063°05'511.4
2017-Dec-01 09:30N 17°54' W 063°02'713.7
2017-Dec-01 08:58N 17°48' W 062°57'713.9
2017-Dec-01 08:29N 17°43' W 062°53'714.6
2017-Dec-01 08:00N 17°37' W 062°48'915.8
2017-Dec-01 07:27N 17°30' W 062°43'716.1
2017-Dec-01 07:00N 17°25' W 062°38'815.8
2017-Dec-01 06:30N 17°19' W 062°33'815.6
2017-Dec-01 06:01N 17°13' W 062°28'1215.6
2017-Dec-01 05:14N 17°00' W 062°26'416.1
2017-Dec-01 05:00N 16°57' W 062°26'815.6
2017-Dec-01 04:30N 16°49' W 062°25'815.6
2017-Dec-01 04:00N 16°41' W 062°23'815.3
2017-Dec-01 03:30N 16°35' W 062°20'815.5
2017-Dec-01 03:00N 16°28' W 062°16'815.8
2017-Dec-01 02:30N 16°21' W 062°12'815.8
2017-Dec-01 02:00N 16°14' W 062°08'815.8
2017-Dec-01 01:30N 16°07' W 062°04'1015.7
2017-Dec-01 00:53N 15°58' W 061°60'715.9
2017-Dec-01 00:28N 15°52' W 061°57'1916.0
2017-Nov-30 23:19N 15°36' W 061°47'615.9
2017-Nov-30 22:57N 15°31' W 061°44'715.8
2017-Nov-30 22:30N 15°25' W 061°41'815.8
2017-Nov-30 21:59N 15°18' W 061°37'816.4
2017-Nov-30 21:29N 15°10' W 061°33'2516.5
2017-Nov-30 19:59N 14°48' W 061°21'916.2
2017-Nov-30 19:27N 14°41' W 061°17'715.9
2017-Nov-30 19:00N 14°37' W 061°11'713.9
2017-Nov-30 18:31N 14°35' W 061°04'1 0.9
2017-Nov-30 17:38N 14°35' W 061°03'0 0.0
2017-Nov-30 17:29N 14°35' W 061°03'0 0.0
2017-Nov-30 16:59N 14°35' W 061°03'0 0.0
2017-Nov-30 16:29N 14°35' W 061°03'0 0.0
2017-Nov-30 15:56N 14°35' W 061°03'0 0.0
2017-Nov-30 15:26N 14°35' W 061°03'0 0.0
2017-Nov-30 14:41N 14°35' W 061°03'0 0.0
2017-Nov-30 14:29N 14°35' W 061°03'0 0.0
2017-Nov-30 13:59N 14°35' W 061°03'0 0.0
2017-Nov-30 13:26N 14°35' W 061°03'0 0.0
2017-Nov-30 12:59N 14°35' W 061°03'0 0.0
2017-Nov-30 12:20N 14°35' W 061°03'0 0.0
2017-Nov-30 11:47N 14°35' W 061°03'0 0.0
2017-Nov-30 11:23N 14°35' W 061°03'0 0.0
2017-Nov-30 10:59N 14°35' W 061°03'0 0.0
2017-Nov-30 10:23N 14°35' W 061°03'1 1.7
2017-Nov-30 10:00N 14°35' W 061°04'3 5.5
2017-Nov-30 09:31N 14°36' W 061°06'611.8
2017-Nov-30 09:00N 14°37' W 061°12'815.8
2017-Nov-30 08:30N 14°40' W 061°20'913.4
2017-Nov-30 07:49N 14°42' W 061°29'1 0.3
2017-Nov-30 03:25N 14°43' W 061°28'0 0.3
2017-Nov-30 02:06N 14°43' W 061°28'0 0.2
2017-Nov-30 01:38N 14°43' W 061°27'0 0.5
2017-Nov-30 01:21N 14°43' W 061°28'3 7.4
2017-Nov-30 00:59N 14°46' W 061°28'3713.4
2017-Nov-29 22:14N 15°22' W 061°34'313.0
2017-Nov-29 21:59N 15°25' W 061°34'712.8
2017-Nov-29 21:26N 15°32' W 061°34'613.2
2017-Nov-29 21:01N 15°38' W 061°34'1613.3
2017-Nov-29 19:48N 15°53' W 061°29'412.9
2017-Nov-29 19:28N 15°57' W 061°29'613.4
2017-Nov-29 19:00N 16°03' W 061°29'611.9
2017-Nov-29 18:30N 16°09' W 061°31'5 9.2
2017-Nov-29 18:00N 16°14' W 061°32'1 0.2
2017-Nov-29 15:33N 16°14' W 061°33'0 0.0
2017-Nov-29 13:12N 16°14' W 061°33'0 0.0
2017-Nov-29 13:00N 16°14' W 061°33'0 0.0
2017-Nov-29 12:27N 16°14' W 061°33'0 0.0
2017-Nov-29 12:00N 16°14' W 061°33'0 0.0
2017-Nov-29 11:27N 16°14' W 061°33'0 0.0
2017-Nov-29 10:00N 16°14' W 061°33'2 3.2
2017-Nov-29 09:30N 16°12' W 061°32'4 8.1
2017-Nov-29 09:00N 16°09' W 061°30'611.9
2017-Nov-29 08:30N 16°07' W 061°24'916.2
2017-Nov-29 07:57N 16°06' W 061°15'716.2
2017-Nov-29 07:29N 16°07' W 061°07'  
2017-Nov-24 07:25N 39°35' W 031°49'718.1
2017-Nov-24 07:00N 39°40' W 031°42'918.2
2017-Nov-24 06:30N 39°46' W 031°33'1417.9
2017-Nov-24 05:42N 39°55' W 031°18'317.9
2017-Nov-24 05:30N 39°56' W 031°14'917.9
2017-Nov-24 05:00N 40°01' W 031°04'1018.1
2017-Nov-24 04:28N 40°05' W 030°53'  

Dump ship's entire track history